Time,TemperatureF,DewpointF,PressureIn,WindDirection,WindDirectionDegrees,WindSpeedMPH,WindSpeedGustMPH,Humidity,HourlyPrecipIn,Conditions,Clouds,dailyrainin,SoftwareType,DateUTC
2013-01-11 00:04:00,45.5,41.6,30.05,SSW,194,0.0,0.0,86,0.00,,SKC,0.00,VWS V14.01,2013-01-11 06:04:00,
2013-01-11 00:09:00,45.4,41.8,30.05,SSW,194,0.0,0.0,87,0.00,,SKC,0.00,VWS V14.01,2013-01-11 06:09:00,
2013-01-11 00:14:00,45.3,41.7,30.05,SSW,194,0.0,0.0,87,0.00,,SKC,0.00,VWS V14.01,2013-01-11 06:14:00,
2013-01-11 00:19:00,45.2,41.6,30.06,SSW,194,0.0,0.0,87,0.00,,SKC,0.00,VWS V14.01,2013-01-11 06:19:00,
2013-01-11 00:24:00,45.0,41.4,30.06,SSW,194,0.0,0.0,87,0.00,,SKC,0.00,VWS V14.01,2013-01-11 06:24:00,
2013-01-11 00:29:00,44.9,41.3,30.06,SSW,194,0.0,0.0,87,0.00,,SKC,0.00,VWS V14.01,2013-01-11 06:29:00,
2013-01-11 00:30:00,44.8,41.2,30.06,SSW,194,0.0,0.0,87,0.00,,SKC,0.00,VWS V14.01,2013-01-11 06:30:00,
2013-01-11 00:34:00,44.8,41.2,30.06,SSW,194,0.0,0.0,87,0.00,,SKC,0.00,VWS V14.01,2013-01-11 06:34:00,
2013-01-11 00:39:00,44.7,41.4,30.06,SSW,194,0.0,0.0,88,0.00,,SKC,0.00,VWS V14.01,2013-01-11 06:39:00,
2013-01-11 00:44:00,44.8,41.5,30.06,SSW,194,0.0,0.0,88,0.00,,SKC,0.00,VWS V14.01,2013-01-11 06:44:00,
2013-01-11 00:49:00,44.8,41.5,30.06,SSW,194,0.0,0.0,88,0.00,,SKC,0.00,VWS V14.01,2013-01-11 06:49:00,
2013-01-11 00:54:00,44.9,41.6,30.06,SSW,194,0.0,0.0,88,0.00,,SKC,0.00,VWS V14.01,2013-01-11 06:54:00,
2013-01-11 00:59:00,44.9,41.9,30.06,SSW,194,0.0,0.0,89,0.00,,SKC,0.00,VWS V14.01,2013-01-11 06:59:00,
2013-01-11 01:00:00,44.9,41.9,30.06,SSW,194,0.0,0.0,89,0.00,,SKC,0.00,VWS V14.01,2013-01-11 07:00:00,
2013-01-11 01:04:00,44.9,41.9,30.06,SSW,194,0.0,0.0,89,0.00,,SKC,0.00,VWS V14.01,2013-01-11 07:04:00,
2013-01-11 01:09:00,45.0,42.0,30.06,SSW,194,0.0,0.0,89,0.00,,SKC,0.00,VWS V14.01,2013-01-11 07:09:00,
2013-01-11 01:14:00,45.1,42.1,30.06,SSW,194,0.0,0.0,89,0.00,,SKC,0.00,VWS V14.01,2013-01-11 07:14:00,
2013-01-11 01:19:00,45.2,42.2,30.06,SSW,194,0.0,0.0,89,0.00,,SKC,0.00,VWS V14.01,2013-01-11 07:19:00,
2013-01-11 01:24:00,45.3,42.5,30.06,SSW,194,0.0,0.0,90,0.00,,SKC,0.00,VWS V14.01,2013-01-11 07:24:00,
2013-01-11 01:29:00,45.4,42.6,30.06,SSW,194,0.0,0.0,90,0.00,,SKC,0.00,VWS V14.01,2013-01-11 07:29:00,
2013-01-11 01:30:00,45.5,42.7,30.06,SSW,194,0.0,0.0,90,0.00,,SKC,0.00,VWS V14.01,2013-01-11 07:30:00,
2013-01-11 01:34:00,45.6,42.8,30.06,SSW,194,0.0,0.0,90,0.00,,SKC,0.00,VWS V14.01,2013-01-11 07:34:00,
2013-01-11 01:39:00,45.6,42.5,30.06,SSW,194,0.0,1.0,89,0.00,,SKC,0.00,VWS V14.01,2013-01-11 07:39:00,
2013-01-11 01:44:00,45.6,42.5,30.06,SSW,194,0.0,1.0,89,0.00,,SKC,0.00,VWS V14.01,2013-01-11 07:44:00,
2013-01-11 01:49:00,45.6,42.5,30.06,SSW,194,0.0,1.0,89,0.00,,SKC,0.00,VWS V14.01,2013-01-11 07:49:00,
2013-01-11 01:54:00,45.6,42.5,30.07,SSW,194,0.0,1.0,89,0.00,,SKC,0.00,VWS V14.01,2013-01-11 07:54:00,
2013-01-11 01:59:00,45.5,42.5,30.07,SSW,194,0.0,1.0,89,0.00,,SKC,0.00,VWS V14.01,2013-01-11 07:59:00,
2013-01-11 02:00:00,45.5,42.5,30.07,SSW,194,0.0,1.0,89,0.00,,SKC,0.00,VWS V14.01,2013-01-11 08:00:00,
2013-01-11 02:04:00,45.5,42.5,30.07,SSW,194,0.0,0.0,89,0.00,,SKC,0.00,VWS V14.01,2013-01-11 08:04:00,
2013-01-11 02:09:00,45.5,42.5,30.07,SSW,194,0.0,0.0,89,0.00,,SKC,0.00,VWS V14.01,2013-01-11 08:09:00,
2013-01-11 02:14:00,45.5,42.5,30.07,SSW,194,0.0,0.0,89,0.00,,SKC,0.00,VWS V14.01,2013-01-11 08:14:00,
2013-01-11 02:19:00,45.4,42.3,30.07,SSW,194,0.0,0.0,89,0.00,,SKC,0.00,VWS V14.01,2013-01-11 08:19:00,
2013-01-11 02:24:00,45.4,42.3,30.06,SSW,194,0.0,0.0,89,0.00,,SKC,0.00,VWS V14.01,2013-01-11 08:24:00,
2013-01-11 02:29:00,45.3,42.3,30.06,SSW,194,0.0,0.0,89,0.00,,SKC,0.00,VWS V14.01,2013-01-11 08:29:00,
2013-01-11 02:30:00,45.3,42.3,30.06,SSW,194,0.0,0.0,89,0.00,,SKC,0.00,VWS V14.01,2013-01-11 08:30:00,
2013-01-11 02:34:00,45.3,42.3,30.06,SSW,194,0.0,0.0,89,0.00,,SKC,0.00,VWS V14.01,2013-01-11 08:34:00,
2013-01-11 02:39:00,45.3,42.3,30.06,SSW,194,0.0,0.0,89,0.00,,SKC,0.00,VWS V14.01,2013-01-11 08:39:00,
2013-01-11 02:44:00,45.2,42.2,30.06,SSW,194,0.0,0.0,89,0.00,,SKC,0.00,VWS V14.01,2013-01-11 08:44:00,
2013-01-11 02:49:00,45.2,42.2,30.06,SSW,194,0.0,0.0,89,0.00,,SKC,0.00,VWS V14.01,2013-01-11 08:49:00,
2013-01-11 02:54:00,45.2,42.2,30.06,SSW,194,0.0,0.0,89,0.00,,SKC,0.00,VWS V14.01,2013-01-11 08:54:00,
2013-01-11 02:59:00,45.2,42.2,30.06,SSW,194,0.0,0.0,89,0.00,,SKC,0.00,VWS V14.01,2013-01-11 08:59:00,
2013-01-11 03:00:00,45.2,42.2,30.06,SSW,194,0.0,0.0,89,0.00,,SKC,0.00,VWS V14.01,2013-01-11 09:00:00,
2013-01-11 03:04:00,45.1,42.1,30.06,SSW,194,0.0,0.0,89,0.00,,SKC,0.00,VWS V14.01,2013-01-11 09:04:00,
2013-01-11 03:09:00,45.1,42.1,30.05,SSW,194,0.0,0.0,89,0.00,,SKC,0.00,VWS V14.01,2013-01-11 09:09:00,
2013-01-11 03:14:00,45.0,42.2,30.05,SSW,194,0.0,0.0,90,0.00,,SKC,0.00,VWS V14.01,2013-01-11 09:14:00,
2013-01-11 03:19:00,45.0,42.2,30.05,SSW,194,0.0,0.0,90,0.00,,SKC,0.00,VWS V14.01,2013-01-11 09:19:00,
2013-01-11 03:24:00,44.8,42.0,30.05,SSW,194,0.0,0.0,90,0.00,,SKC,0.00,VWS V14.01,2013-01-11 09:24:00,
2013-01-11 03:29:00,44.7,42.0,30.05,SSW,194,0.0,0.0,90,0.00,,SKC,0.00,VWS V14.01,2013-01-11 09:29:00,
2013-01-11 03:30:00,44.6,41.8,30.05,SSW,194,0.0,0.0,90,0.00,,SKC,0.00,VWS V14.01,2013-01-11 09:30:00,
2013-01-11 03:34:00,44.6,41.8,30.05,SSW,194,0.0,0.0,90,0.00,,SKC,0.00,VWS V14.01,2013-01-11 09:34:00,
2013-01-11 03:39:00,44.5,41.8,30.05,SSW,194,0.0,0.0,90,0.00,,SKC,0.00,VWS V14.01,2013-01-11 09:39:00,
2013-01-11 03:44:00,44.3,41.6,30.05,SSW,194,0.0,0.0,90,0.00,,SKC,0.00,VWS V14.01,2013-01-11 09:44:00,
2013-01-11 03:49:00,44.2,41.5,30.05,SSW,194,0.0,0.0,90,0.00,,SKC,0.00,VWS V14.01,2013-01-11 09:49:00,
2013-01-11 03:54:00,44.1,41.4,30.04,SSW,194,0.0,0.0,90,0.00,,SKC,0.00,VWS V14.01,2013-01-11 09:54:00,
2013-01-11 03:59:00,44.0,41.3,30.04,SSW,194,0.0,0.0,90,0.00,,SKC,0.00,VWS V14.01,2013-01-11 09:59:00,
2013-01-11 04:00:00,43.9,41.2,30.04,SSW,194,0.0,0.0,90,0.00,,SKC,0.00,VWS V14.01,2013-01-11 10:00:00,
2013-01-11 04:04:00,43.9,41.2,30.04,SSW,194,0.0,0.0,90,0.00,,SKC,0.00,VWS V14.01,2013-01-11 10:04:00,
2013-01-11 04:09:00,43.7,41.0,30.04,SSW,194,0.0,0.0,90,0.00,,SKC,0.00,VWS V14.01,2013-01-11 10:09:00,
2013-01-11 04:14:00,43.6,40.9,30.04,SSW,194,0.0,0.0,90,0.00,,SKC,0.00,VWS V14.01,2013-01-11 10:14:00,
2013-01-11 04:19:00,43.5,40.8,30.04,SSW,194,0.0,0.0,90,0.00,,SKC,0.00,VWS V14.01,2013-01-11 10:19:00,
2013-01-11 04:24:00,43.4,40.7,30.03,SSW,194,0.0,0.0,90,0.00,,SKC,0.00,VWS V14.01,2013-01-11 10:24:00,
2013-01-11 04:29:00,43.3,40.6,30.03,SSW,194,0.0,0.0,90,0.00,,SKC,0.00,VWS V14.01,2013-01-11 10:29:00,
2013-01-11 04:30:00,43.3,40.6,30.03,SSW,194,0.0,0.0,90,0.00,,SKC,0.00,VWS V14.01,2013-01-11 10:30:00,
2013-01-11 04:34:00,43.2,40.5,30.03,SSW,194,0.0,0.0,90,0.00,,SKC,0.00,VWS V14.01,2013-01-11 10:34:00,
2013-01-11 04:39:00,43.1,40.4,30.03,SSW,194,0.0,0.0,90,0.00,,SKC,0.00,VWS V14.01,2013-01-11 10:39:00,
2013-01-11 04:44:00,43.1,40.4,30.03,SSW,194,0.0,0.0,90,0.00,,SKC,0.00,VWS V14.01,2013-01-11 10:44:00,
2013-01-11 04:49:00,43.1,40.4,30.02,SSW,194,0.0,0.0,90,0.00,,SKC,0.00,VWS V14.01,2013-01-11 10:49:00,
2013-01-11 04:54:00,43.0,40.3,30.02,SSW,194,0.0,0.0,90,0.00,,SKC,0.00,VWS V14.01,2013-01-11 10:54:00,
2013-01-11 04:59:00,42.9,40.2,30.02,SSW,194,0.0,0.0,90,0.00,,SKC,0.00,VWS V14.01,2013-01-11 10:59:00,
2013-01-11 05:00:00,42.9,40.5,30.03,SSW,194,0.0,0.0,91,0.00,,SKC,0.00,VWS V14.01,2013-01-11 11:00:00,
2013-01-11 05:04:00,42.9,40.5,30.03,SSW,194,0.0,0.0,91,0.00,,SKC,0.00,VWS V14.01,2013-01-11 11:04:00,
2013-01-11 05:09:00,43.0,40.6,30.03,SSW,194,0.0,0.0,91,0.00,,SKC,0.00,VWS V14.01,2013-01-11 11:09:00,
2013-01-11 05:14:00,43.2,40.8,30.02,SSW,194,0.0,0.0,91,0.00,,SKC,0.00,VWS V14.01,2013-01-11 11:14:00,
2013-01-11 05:19:00,43.3,40.8,30.03,SSW,194,0.0,0.0,91,0.00,,SKC,0.00,VWS V14.01,2013-01-11 11:19:00,
2013-01-11 05:24:00,43.4,41.0,30.02,SSW,194,0.0,0.0,91,0.00,,SKC,0.00,VWS V14.01,2013-01-11 11:24:00,
2013-01-11 05:29:00,43.6,41.4,30.02,SSW,194,0.0,0.0,92,0.00,,SKC,0.00,VWS V14.01,2013-01-11 11:29:00,
2013-01-11 05:30:00,43.6,41.4,30.02,SSW,194,0.0,0.0,92,0.00,,SKC,0.00,VWS V14.01,2013-01-11 11:30:00,
2013-01-11 05:34:00,43.7,41.5,30.02,SSW,194,0.0,0.0,92,0.00,,SKC,0.00,VWS V14.01,2013-01-11 11:34:00,
2013-01-11 05:39:00,43.7,41.5,30.02,SSW,194,0.0,0.0,92,0.00,,SKC,0.00,VWS V14.01,2013-01-11 11:39:00,
2013-01-11 05:44:00,43.7,41.5,30.02,SSW,194,0.0,0.0,92,0.00,,SKC,0.00,VWS V14.01,2013-01-11 11:44:00,
2013-01-11 05:49:00,43.8,41.6,30.02,SSW,194,0.0,0.0,92,0.00,,SKC,0.00,VWS V14.01,2013-01-11 11:49:00,
2013-01-11 05:54:00,43.7,41.5,30.02,SSW,194,0.0,0.0,92,0.00,,SKC,0.00,VWS V14.01,2013-01-11 11:54:00,
2013-01-11 05:59:00,43.7,41.5,30.02,SSW,194,0.0,0.0,92,0.00,,SKC,0.00,VWS V14.01,2013-01-11 11:59:00,
2013-01-11 06:00:00,43.7,41.5,30.02,SSW,194,0.0,0.0,92,0.00,,SKC,0.00,VWS V14.01,2013-01-11 12:00:00,
2013-01-11 06:04:00,43.7,41.5,30.02,SSW,194,0.0,0.0,92,0.00,,SKC,0.00,VWS V14.01,2013-01-11 12:04:00,
2013-01-11 06:09:00,43.7,41.5,30.02,SSW,194,0.0,0.0,92,0.00,,SKC,0.00,VWS V14.01,2013-01-11 12:09:00,
2013-01-11 06:14:00,43.7,41.5,30.02,SSW,194,0.0,0.0,92,0.00,,SKC,0.00,VWS V14.01,2013-01-11 12:14:00,
2013-01-11 06:19:00,43.7,41.5,30.02,SSW,194,0.0,0.0,92,0.00,,SKC,0.00,VWS V14.01,2013-01-11 12:19:00,
2013-01-11 06:24:00,43.7,41.5,30.01,SSW,194,0.0,0.0,92,0.00,,SKC,0.00,VWS V14.01,2013-01-11 12:24:00,
2013-01-11 06:29:00,43.7,41.5,30.01,SSW,194,0.0,0.0,92,0.00,,SKC,0.00,VWS V14.01,2013-01-11 12:29:00,
2013-01-11 06:30:00,43.6,41.4,30.01,SSW,194,0.0,0.0,92,0.00,,SKC,0.00,VWS V14.01,2013-01-11 12:30:00,
2013-01-11 06:34:00,43.6,41.4,30.01,SSW,194,0.0,0.0,92,0.00,,SKC,0.00,VWS V14.01,2013-01-11 12:34:00,
2013-01-11 06:39:00,43.5,41.3,30.01,SSW,194,0.0,0.0,92,0.00,,SKC,0.00,VWS V14.01,2013-01-11 12:39:00,
2013-01-11 06:44:00,43.7,41.8,30.01,SSW,194,0.0,0.0,93,0.00,,SKC,0.00,VWS V14.01,2013-01-11 12:44:00,
2013-01-11 06:49:00,43.8,41.9,30.01,SSW,194,0.0,0.0,93,0.00,,SKC,0.00,VWS V14.01,2013-01-11 12:49:00,
2013-01-11 06:54:00,44.0,42.1,30.01,SSW,194,0.0,0.0,93,0.00,,SKC,0.00,VWS V14.01,2013-01-11 12:54:00,
2013-01-11 06:59:00,44.1,42.2,30.02,SSW,194,0.0,0.0,93,0.00,,SKC,0.00,VWS V14.01,2013-01-11 12:59:00,
2013-01-11 07:00:00,44.0,42.1,30.02,SSW,194,0.0,0.0,93,0.00,,SKC,0.00,VWS V14.01,2013-01-11 13:00:00,
2013-01-11 07:04:00,44.1,42.2,30.02,SSW,194,0.0,0.0,93,0.00,,SKC,0.00,VWS V14.01,2013-01-11 13:04:00,
2013-01-11 07:09:00,44.1,42.2,30.02,SSW,194,0.0,0.0,93,0.00,,SKC,0.00,VWS V14.01,2013-01-11 13:09:00,
2013-01-11 07:14:00,44.0,42.1,30.02,SSW,194,0.0,0.0,93,0.00,,SKC,0.00,VWS V14.01,2013-01-11 13:14:00,
2013-01-11 07:19:00,44.1,42.2,30.01,SSW,194,0.0,0.0,93,0.00,,SKC,0.00,VWS V14.01,2013-01-11 13:19:00,
2013-01-11 07:24:00,44.2,42.3,30.02,SSW,194,0.0,0.0,93,0.00,,SKC,0.00,VWS V14.01,2013-01-11 13:24:00,
2013-01-11 07:29:00,44.2,42.3,30.02,SSW,194,0.0,0.0,93,0.00,,SKC,0.00,VWS V14.01,2013-01-11 13:29:00,
2013-01-11 07:30:00,44.3,42.4,30.02,SSW,194,0.0,0.0,93,0.00,,SKC,0.00,VWS V14.01,2013-01-11 13:30:00,
2013-01-11 07:34:00,44.2,42.3,30.02,SSW,194,0.0,0.0,93,0.00,,SKC,0.00,VWS V14.01,2013-01-11 13:34:00,
2013-01-11 07:39:00,44.2,42.3,30.01,SSW,194,0.0,0.0,93,0.00,,SKC,0.00,VWS V14.01,2013-01-11 13:39:00,
2013-01-11 07:44:00,44.1,42.2,30.02,SSW,194,0.0,0.0,93,0.00,,SKC,0.00,VWS V14.01,2013-01-11 13:44:00,
2013-01-11 07:49:00,44.1,42.2,30.02,SSW,194,0.0,0.0,93,0.00,,SKC,0.00,VWS V14.01,2013-01-11 13:49:00,
2013-01-11 07:54:00,44.0,42.1,30.02,SSW,194,0.0,0.0,93,0.00,,SKC,0.00,VWS V14.01,2013-01-11 13:54:00,
2013-01-11 07:59:00,44.2,42.3,30.02,SSW,194,0.0,0.0,93,0.00,,SKC,0.00,VWS V14.01,2013-01-11 13:59:00,
2013-01-11 08:00:00,44.2,42.3,30.02,SSW,194,0.0,0.0,93,0.00,,SKC,0.00,VWS V14.01,2013-01-11 14:00:00,
2013-01-11 08:04:00,44.3,42.4,30.02,SSW,194,0.0,0.0,93,0.00,,SKC,0.00,VWS V14.01,2013-01-11 14:04:00,
2013-01-11 08:09:00,44.4,42.5,30.01,SSW,194,0.0,0.0,93,0.00,,SKC,0.00,VWS V14.01,2013-01-11 14:09:00,
2013-01-11 08:14:00,44.6,43.0,30.02,South,189,0.0,0.0,94,0.00,,SKC,0.00,VWS V14.01,2013-01-11 14:14:00,
2013-01-11 08:19:00,44.7,43.1,30.01,South,189,0.0,0.0,94,0.00,,SKC,0.00,VWS V14.01,2013-01-11 14:19:00,
2013-01-11 08:24:00,45.0,43.4,30.01,South,189,0.0,0.0,94,0.00,,SKC,0.00,VWS V14.01,2013-01-11 14:24:00,
2013-01-11 08:29:00,45.1,43.5,30.01,South,189,0.0,0.0,94,0.00,,SKC,0.00,VWS V14.01,2013-01-11 14:29:00,
2013-01-11 08:34:00,45.5,43.9,30.02,South,189,0.0,0.0,94,0.00,,SKC,0.00,VWS V14.01,2013-01-11 14:34:00,
2013-01-11 08:39:00,46.0,44.4,30.02,South,189,0.0,0.0,94,0.00,,SKC,0.00,VWS V14.01,2013-01-11 14:39:00,
2013-01-11 08:44:00,46.8,45.5,30.02,South,189,0.0,0.0,95,0.00,,SKC,0.00,VWS V14.01,2013-01-11 14:44:00,
2013-01-11 08:49:00,47.5,46.1,30.02,South,189,0.0,0.0,95,0.00,,SKC,0.00,VWS V14.01,2013-01-11 14:49:00,
2013-01-11 08:54:00,48.1,46.7,30.02,South,188,0.0,0.0,95,0.00,,SKC,0.00,VWS V14.01,2013-01-11 14:54:00,
2013-01-11 08:59:00,48.6,47.2,30.02,South,182,0.0,1.0,95,0.00,,SKC,0.00,VWS V14.01,2013-01-11 14:59:00,
2013-01-11 09:04:00,49.2,47.8,30.02,South,182,0.0,2.0,95,0.00,,SKC,0.00,VWS V14.01,2013-01-11 15:04:00,
2013-01-11 09:09:00,49.7,48.3,30.02,SSW,200,0.0,2.0,95,0.00,,SKC,0.00,VWS V14.01,2013-01-11 15:09:00,
2013-01-11 09:15:00,50.3,48.9,30.02,SSW,200,0.0,4.0,95,0.00,,SKC,0.00,VWS V14.01,2013-01-11 15:15:00,
2013-01-11 09:20:00,51.2,49.8,30.02,SSW,202,5.0,6.0,95,0.00,,SKC,0.00,VWS V14.01,2013-01-11 15:20:00,
2013-01-11 09:25:00,51.7,50.3,30.02,SSW,202,2.0,6.0,95,0.00,,SKC,0.00,VWS V14.01,2013-01-11 15:25:00,
2013-01-11 09:30:00,52.2,50.8,30.02,SSW,202,3.0,6.0,95,0.00,,SKC,0.00,VWS V14.01,2013-01-11 15:30:00,
2013-01-11 09:34:00,52.6,51.2,30.02,SSW,202,2.0,5.0,95,0.00,,SKC,0.00,VWS V14.01,2013-01-11 15:34:00,
2013-01-11 09:39:00,53.1,51.7,30.02,SSW,205,7.0,7.0,95,0.00,,SKC,0.00,VWS V14.01,2013-01-11 15:39:00,
2013-01-11 09:44:00,53.5,52.1,30.03,SSW,206,5.0,7.0,95,0.00,,SKC,0.00,VWS V14.01,2013-01-11 15:44:00,
2013-01-11 09:49:00,53.9,52.5,30.03,SSW,207,3.0,7.0,95,0.00,,SKC,0.00,VWS V14.01,2013-01-11 15:49:00,
2013-01-11 09:54:00,54.3,52.9,30.02,SSW,207,4.0,7.0,95,0.00,,SKC,0.00,VWS V14.01,2013-01-11 15:54:00,
2013-01-11 09:59:00,54.7,53.3,30.02,SSW,210,6.0,9.0,95,0.00,,SKC,0.00,VWS V14.01,2013-01-11 15:59:00,
2013-01-11 10:04:00,55.1,53.7,30.02,SSW,207,5.0,9.0,95,0.00,,SKC,0.00,VWS V14.01,2013-01-11 16:04:00,
2013-01-11 10:09:00,55.4,54.0,30.02,SSW,209,6.0,9.0,95,0.00,,SKC,0.00,VWS V14.01,2013-01-11 16:09:00,
2013-01-11 10:14:00,55.7,54.3,30.01,SSW,211,7.0,9.0,95,0.00,,SKC,0.00,VWS V14.01,2013-01-11 16:14:00,
2013-01-11 10:19:00,56.1,54.7,30.02,SSW,211,4.0,12.0,95,0.00,,SKC,0.00,VWS V14.01,2013-01-11 16:19:00,
2013-01-11 10:24:00,56.5,55.1,30.02,SSW,200,4.0,12.0,95,0.00,,SKC,0.00,VWS V14.01,2013-01-11 16:24:00,
2013-01-11 10:29:00,56.9,55.5,30.02,SW,223,2.0,13.0,95,0.00,,SKC,0.00,VWS V14.01,2013-01-11 16:29:00,
2013-01-11 10:34:00,57.3,55.9,30.02,SSW,194,5.0,9.0,95,0.00,,SKC,0.00,VWS V14.01,2013-01-11 16:34:00,
2013-01-11 10:39:00,57.6,56.2,30.01,SSW,200,2.0,9.0,95,0.00,,SKC,0.00,VWS V14.01,2013-01-11 16:39:00,
2013-01-11 10:44:00,57.8,56.4,30.01,SSW,192,2.0,10.0,95,0.00,,SKC,0.00,VWS V14.01,2013-01-11 16:44:00,
2013-01-11 10:49:00,58.1,56.7,30.01,SSW,196,7.0,10.0,95,0.00,,SKC,0.00,VWS V14.01,2013-01-11 16:49:00,
2013-01-11 10:54:00,58.3,56.9,30.01,SSW,201,7.0,10.0,95,0.00,,SKC,0.00,VWS V14.01,2013-01-11 16:54:00,
2013-01-11 10:59:00,58.5,57.1,30.01,SSW,202,5.0,11.0,95,0.00,,SKC,0.00,VWS V14.01,2013-01-11 16:59:00,
2013-01-11 11:04:00,58.7,57.0,30.00,SSW,209,2.0,10.0,94,0.00,,SKC,0.00,VWS V14.01,2013-01-11 17:04:00,
2013-01-11 11:09:00,58.9,57.2,30.00,SSW,210,4.0,11.0,94,0.00,,SKC,0.00,VWS V14.01,2013-01-11 17:09:00,
2013-01-11 11:14:00,59.1,57.4,30.00,SSW,212,5.0,11.0,94,0.00,,SKC,0.00,VWS V14.01,2013-01-11 17:14:00,
2013-01-11 11:19:00,59.4,57.7,30.00,SSW,197,3.0,11.0,94,0.00,,SKC,0.00,VWS V14.01,2013-01-11 17:19:00,
2013-01-11 11:24:00,59.7,58.0,29.99,SSW,209,3.0,11.0,94,0.00,,SKC,0.00,VWS V14.01,2013-01-11 17:24:00,
2013-01-11 11:29:00,60.0,58.3,29.99,South,187,6.0,11.0,94,0.00,,SKC,0.00,VWS V14.01,2013-01-11 17:29:00,
2013-01-11 11:34:00,60.1,58.1,29.99,South,186,6.0,13.0,93,0.00,,SKC,0.00,VWS V14.01,2013-01-11 17:34:00,
2013-01-11 11:39:00,60.3,58.3,29.98,SSW,213,8.0,14.0,93,0.00,,SKC,0.00,VWS V14.01,2013-01-11 17:39:00,
2013-01-11 11:44:00,60.4,58.1,29.98,South,190,5.0,15.0,92,0.00,,SKC,0.00,VWS V14.01,2013-01-11 17:44:00,
2013-01-11 11:49:00,60.5,58.2,29.98,SW,221,5.0,15.0,92,0.00,,SKC,0.00,VWS V14.01,2013-01-11 17:49:00,
2013-01-11 11:54:00,60.6,58.3,29.98,SW,221,3.0,15.0,92,0.00,,SKC,0.00,VWS V14.01,2013-01-11 17:54:00,
2013-01-11 11:59:00,60.7,58.1,29.98,SSW,194,6.0,15.0,91,0.00,,SKC,0.00,VWS V14.01,2013-01-11 17:59:00,
2013-01-11 12:00:00,60.9,58.3,29.97,South,189,4.0,15.0,91,0.00,,SKC,0.00,VWS V14.01,2013-01-11 18:00:00,
2013-01-11 12:04:00,60.9,58.3,29.97,SSW,200,5.0,10.0,91,0.00,,SKC,0.00,VWS V14.01,2013-01-11 18:04:00,
2013-01-11 12:09:00,61.1,58.5,29.97,SSW,210,5.0,11.0,91,0.00,,SKC,0.00,VWS V14.01,2013-01-11 18:09:00,
2013-01-11 12:14:00,61.2,58.2,29.97,SSW,199,5.0,13.0,90,0.00,,SKC,0.00,VWS V14.01,2013-01-11 18:14:00,
2013-01-11 12:19:00,61.2,58.2,29.97,SW,223,4.0,13.0,90,0.00,,SKC,0.00,VWS V14.01,2013-01-11 18:19:00,
2013-01-11 12:24:00,61.3,58.3,29.97,SW,217,4.0,13.0,90,0.00,,SKC,0.00,VWS V14.01,2013-01-11 18:24:00,
2013-01-11 12:29:00,61.3,58.3,29.96,SSW,194,2.0,13.0,90,0.00,,SKC,0.00,VWS V14.01,2013-01-11 18:29:00,
2013-01-11 12:34:00,61.4,58.5,29.96,SW,222,5.0,10.0,90,0.00,,SKC,0.00,VWS V14.01,2013-01-11 18:34:00,
2013-01-11 12:39:00,61.4,58.1,29.96,SSW,206,4.0,13.0,89,0.00,,SKC,0.00,VWS V14.01,2013-01-11 18:39:00,
2013-01-11 12:44:00,61.5,58.2,29.95,SSW,212,3.0,15.0,89,0.00,,SKC,0.00,VWS V14.01,2013-01-11 18:44:00,
2013-01-11 12:49:00,61.7,58.4,29.95,WSW,248,5.0,15.0,89,0.00,,SKC,0.00,VWS V14.01,2013-01-11 18:49:00,
2013-01-11 12:54:00,61.9,58.3,29.95,SSW,209,7.0,18.0,88,0.00,,SKC,0.00,VWS V14.01,2013-01-11 18:54:00,
2013-01-11 12:59:00,62.3,58.7,29.94,SSW,211,6.0,18.0,88,0.00,,SKC,0.00,VWS V14.01,2013-01-11 18:59:00,
2013-01-11 13:04:00,62.7,58.8,29.94,SSW,202,9.0,11.0,87,0.00,,SKC,0.00,VWS V14.01,2013-01-11 19:04:00,
2013-01-11 13:09:00,63.0,58.8,29.94,SSW,192,6.0,14.0,86,0.00,,SKC,0.00,VWS V14.01,2013-01-11 19:09:00,
2013-01-11 13:14:00,63.5,58.9,29.93,SW,228,2.0,14.0,85,0.00,,SKC,0.00,VWS V14.01,2013-01-11 19:14:00,
2013-01-11 13:19:00,64.0,59.1,29.92,SSW,211,3.0,14.0,84,0.00,,SKC,0.00,VWS V14.01,2013-01-11 19:19:00,
2013-01-11 13:24:00,64.7,59.4,29.91,South,184,4.0,14.0,83,0.00,,SKC,0.00,VWS V14.01,2013-01-11 19:24:00,
2013-01-11 13:29:00,65.3,59.3,29.91,South,180,6.0,14.0,81,0.00,,SKC,0.00,VWS V14.01,2013-01-11 19:29:00,
2013-01-11 13:34:00,65.6,59.3,29.90,SSE,156,1.0,5.0,80,0.00,,SKC,0.00,VWS V14.01,2013-01-11 19:34:00,
2013-01-11 13:39:00,65.9,59.6,29.90,South,170,2.0,10.0,80,0.00,,SKC,0.00,VWS V14.01,2013-01-11 19:39:00,
2013-01-11 13:44:00,66.3,59.6,29.89,SE,144,10.0,15.0,79,0.00,,SKC,0.00,VWS V14.01,2013-01-11 19:44:00,
2013-01-11 13:49:00,66.7,59.6,29.90,SW,219,9.0,15.0,78,0.00,,SKC,0.00,VWS V14.01,2013-01-11 19:49:00,
2013-01-11 13:54:00,66.9,59.5,29.90,SSE,150,4.0,17.0,77,0.00,,SKC,0.00,VWS V14.01,2013-01-11 19:54:00,
2013-01-11 13:59:00,66.8,59.4,29.90,SSW,203,5.0,17.0,77,0.00,,SKC,0.00,VWS V14.01,2013-01-11 19:59:00,
2013-01-11 14:04:00,66.6,59.2,29.91,SSW,213,4.0,11.0,77,0.00,,SKC,0.00,VWS V14.01,2013-01-11 20:04:00,
2013-01-11 14:09:00,66.6,59.2,29.91,SSW,211,4.0,11.0,77,0.00,,SKC,0.00,VWS V14.01,2013-01-11 20:09:00,
2013-01-11 14:14:00,66.6,59.5,29.91,SSW,195,2.0,11.0,78,0.00,,SKC,0.00,VWS V14.01,2013-01-11 20:14:00,
2013-01-11 14:19:00,66.6,59.5,29.91,SW,225,2.0,11.0,78,0.00,,SKC,0.00,VWS V14.01,2013-01-11 20:19:00,
2013-01-11 14:24:00,66.7,59.3,29.90,South,176,4.0,11.0,77,0.00,,SKC,0.00,VWS V14.01,2013-01-11 20:24:00,
2013-01-11 14:29:00,66.9,59.5,29.89,South,175,3.0,11.0,77,0.00,,SKC,0.00,VWS V14.01,2013-01-11 20:29:00,
2013-01-11 14:34:00,67.1,59.7,29.89,South,186,2.0,5.0,77,0.00,,SKC,0.00,VWS V14.01,2013-01-11 20:34:00,
2013-01-11 14:39:00,67.2,59.8,29.89,South,184,0.0,5.0,77,0.00,,SKC,0.00,VWS V14.01,2013-01-11 20:39:00,
2013-01-11 14:44:00,67.2,59.4,29.89,SSW,213,2.0,10.0,76,0.00,,SKC,0.00,VWS V14.01,2013-01-11 20:44:00,
2013-01-11 14:49:00,67.3,59.8,29.89,SSW,205,5.0,10.0,77,0.00,,SKC,0.00,VWS V14.01,2013-01-11 20:49:00,
2013-01-11 14:54:00,67.4,59.6,29.89,SSW,205,1.0,10.0,76,0.00,,SKC,0.00,VWS V14.01,2013-01-11 20:54:00,
2013-01-11 14:59:00,67.5,59.7,29.88,South,173,4.0,10.0,76,0.00,,SKC,0.00,VWS V14.01,2013-01-11 20:59:00,
2013-01-11 15:04:00,67.6,60.1,29.88,South,180,2.0,6.0,77,0.00,,SKC,0.00,VWS V14.01,2013-01-11 21:04:00,
2013-01-11 15:09:00,67.8,60.0,29.88,South,182,0.0,6.0,76,0.00,,SKC,0.00,VWS V14.01,2013-01-11 21:09:00,
2013-01-11 15:14:00,67.9,60.1,29.89,South,184,1.0,7.0,76,0.00,,SKC,0.00,VWS V14.01,2013-01-11 21:14:00,
2013-01-11 15:19:00,67.8,60.0,29.89,SSW,194,3.0,7.0,76,0.00,,SKC,0.00,VWS V14.01,2013-01-11 21:19:00,
2013-01-11 15:24:00,67.9,60.1,29.88,SSW,194,3.0,7.0,76,0.00,,SKC,0.00,VWS V14.01,2013-01-11 21:24:00,
2013-01-11 15:29:00,67.9,60.1,29.88,SSW,192,3.0,7.0,76,0.00,,SKC,0.00,VWS V14.01,2013-01-11 21:29:00,
2013-01-11 15:34:00,68.0,60.2,29.88,SSE,167,0.0,4.0,76,0.00,,SKC,0.00,VWS V14.01,2013-01-11 21:34:00,
2013-01-11 15:39:00,68.0,60.2,29.88,SSE,150,4.0,8.0,76,0.00,,SKC,0.00,VWS V14.01,2013-01-11 21:39:00,
2013-01-11 15:44:00,67.9,60.1,29.87,SSE,150,6.0,8.0,76,0.00,,SKC,0.00,VWS V14.01,2013-01-11 21:44:00,
2013-01-11 15:49:00,67.8,60.0,29.87,SSE,148,2.0,8.0,76,0.00,,SKC,0.00,VWS V14.01,2013-01-11 21:49:00,
2013-01-11 15:54:00,67.8,60.0,29.87,SSE,149,5.0,8.0,76,0.00,,SKC,0.00,VWS V14.01,2013-01-11 21:54:00,
2013-01-11 15:59:00,67.7,60.2,29.87,SE,140,0.0,10.0,77,0.00,,SKC,0.00,VWS V14.01,2013-01-11 21:59:00,
2013-01-11 16:04:00,67.6,60.1,29.87,SE,140,3.0,5.0,77,0.00,,SKC,0.00,VWS V14.01,2013-01-11 22:04:00,
2013-01-11 16:09:00,67.5,60.0,29.87,SE,140,1.0,7.0,77,0.00,,SKC,0.00,VWS V14.01,2013-01-11 22:09:00,
2013-01-11 16:14:00,67.5,60.4,29.87,SE,140,3.0,7.0,78,0.00,,SKC,0.00,VWS V14.01,2013-01-11 22:14:00,
2013-01-11 16:19:00,67.5,60.4,29.87,SE,140,3.0,7.0,78,0.00,,SKC,0.00,VWS V14.01,2013-01-11 22:19:00,
2013-01-11 16:24:00,67.6,60.5,29.87,SE,142,0.0,7.0,78,0.00,,SKC,0.00,VWS V14.01,2013-01-11 22:24:00,
2013-01-11 16:29:00,67.8,60.7,29.87,SE,142,0.0,7.0,78,0.00,,SKC,0.00,VWS V14.01,2013-01-11 22:29:00,
2013-01-11 16:34:00,67.9,60.8,29.87,SE,142,0.0,2.0,78,0.00,,SKC,0.00,VWS V14.01,2013-01-11 22:34:00,
2013-01-11 16:39:00,68.1,60.6,29.87,SE,142,0.0,4.0,77,0.00,,SKC,0.00,VWS V14.01,2013-01-11 22:39:00,
2013-01-11 16:44:00,68.2,60.7,29.86,SE,142,0.0,4.0,77,0.00,,SKC,0.00,VWS V14.01,2013-01-11 22:44:00,
2013-01-11 16:49:00,68.3,60.8,29.86,SE,142,0.0,4.0,77,0.00,,SKC,0.00,VWS V14.01,2013-01-11 22:49:00,
2013-01-11 16:54:00,68.3,60.8,29.86,SE,142,2.0,4.0,77,0.00,,SKC,0.00,VWS V14.01,2013-01-11 22:54:00,
2013-01-11 16:59:00,68.2,60.7,29.86,SE,142,0.0,4.0,77,0.00,,SKC,0.00,VWS V14.01,2013-01-11 22:59:00,
2013-01-11 17:04:00,68.1,60.6,29.86,SE,142,0.0,3.0,77,0.00,,SKC,0.00,VWS V14.01,2013-01-11 23:04:00,
2013-01-11 17:09:00,68.0,60.5,29.86,SE,142,0.0,3.0,77,0.00,,SKC,0.00,VWS V14.01,2013-01-11 23:09:00,
2013-01-11 17:14:00,67.9,60.8,29.87,SE,142,0.0,3.0,78,0.00,,SKC,0.00,VWS V14.01,2013-01-11 23:14:00,
2013-01-11 17:19:00,67.8,60.7,29.87,SE,142,0.0,3.0,78,0.00,,SKC,0.00,VWS V14.01,2013-01-11 23:19:00,
2013-01-11 17:24:00,67.7,60.6,29.87,SE,142,0.0,3.0,78,0.00,,SKC,0.00,VWS V14.01,2013-01-11 23:24:00,
2013-01-11 17:29:00,67.6,60.5,29.87,SE,142,0.0,3.0,78,0.00,,SKC,0.00,VWS V14.01,2013-01-11 23:29:00,
2013-01-11 17:34:00,67.5,60.4,29.87,SE,142,0.0,0.0,78,0.00,,SKC,0.00,VWS V14.01,2013-01-11 23:34:00,
2013-01-11 17:39:00,67.4,60.7,29.86,SE,142,0.0,0.0,79,0.00,,SKC,0.00,VWS V14.01,2013-01-11 23:39:00,
2013-01-11 17:44:00,67.2,60.5,29.86,SE,142,0.0,0.0,79,0.00,,SKC,0.00,VWS V14.01,2013-01-11 23:44:00,
2013-01-11 17:49:00,67.0,60.3,29.86,SE,142,0.0,0.0,79,0.00,,SKC,0.00,VWS V14.01,2013-01-11 23:49:00,
2013-01-11 17:54:00,66.9,60.2,29.86,SE,142,0.0,0.0,79,0.00,,SKC,0.00,VWS V14.01,2013-01-11 23:54:00,
2013-01-11 17:59:00,66.6,59.9,29.86,SE,142,0.0,0.0,79,0.00,,SKC,0.00,VWS V14.01,2013-01-11 23:59:00,
2013-01-11 18:04:00,66.2,59.9,29.86,SE,142,0.0,0.0,80,0.00,,SKC,0.00,VWS V14.01,2013-01-12 00:04:00,
2013-01-11 18:09:00,65.8,59.8,29.86,SE,142,0.0,1.0,81,0.00,,SKC,0.00,VWS V14.01,2013-01-12 00:09:00,
2013-01-11 18:14:00,65.4,59.4,29.86,SE,142,0.0,1.0,81,0.00,,SKC,0.00,VWS V14.01,2013-01-12 00:14:00,
2013-01-11 18:19:00,65.1,59.5,29.86,SE,142,0.0,1.0,82,0.00,,SKC,0.00,VWS V14.01,2013-01-12 00:19:00,
2013-01-11 18:24:00,64.7,59.1,29.86,SE,142,0.0,1.0,82,0.00,,SKC,0.00,VWS V14.01,2013-01-12 00:24:00,
2013-01-11 18:29:00,64.4,59.1,29.86,SE,142,0.0,1.0,83,0.00,,SKC,0.00,VWS V14.01,2013-01-12 00:29:00,
2013-01-11 18:34:00,64.2,59.3,29.85,SE,142,0.0,0.0,84,0.00,,SKC,0.00,VWS V14.01,2013-01-12 00:34:00,
2013-01-11 18:39:00,64.0,59.1,29.85,SE,142,0.0,1.0,84,0.00,,SKC,0.00,VWS V14.01,2013-01-12 00:39:00,
2013-01-11 18:44:00,63.8,59.2,29.86,SE,142,0.0,1.0,85,0.00,,SKC,0.00,VWS V14.01,2013-01-12 00:44:00,
2013-01-11 18:49:00,63.6,59.0,29.86,SE,142,0.0,1.0,85,0.00,,SKC,0.00,VWS V14.01,2013-01-12 00:49:00,
2013-01-11 18:54:00,63.5,58.9,29.87,SE,142,0.0,1.0,85,0.00,,SKC,0.00,VWS V14.01,2013-01-12 00:54:00,
2013-01-11 18:59:00,63.4,59.2,29.86,SE,142,0.0,1.0,86,0.00,,SKC,0.00,VWS V14.01,2013-01-12 00:59:00,
2013-01-11 19:04:00,63.3,59.0,29.87,SE,142,0.0,1.0,86,0.00,,SKC,0.00,VWS V14.01,2013-01-12 01:04:00,
2013-01-11 19:09:00,63.2,59.0,29.87,SE,142,0.0,1.0,86,0.00,,SKC,0.00,VWS V14.01,2013-01-12 01:09:00,
2013-01-11 19:14:00,63.2,59.0,29.87,SE,142,0.0,1.0,86,0.00,,SKC,0.00,VWS V14.01,2013-01-12 01:14:00,
2013-01-11 19:19:00,63.1,58.8,29.86,SE,142,0.0,1.0,86,0.00,,SKC,0.00,VWS V14.01,2013-01-12 01:19:00,
2013-01-11 19:24:00,63.1,58.8,29.86,SE,142,1.0,1.0,86,0.00,,SKC,0.00,VWS V14.01,2013-01-12 01:24:00,
2013-01-11 19:29:00,63.0,59.1,29.87,SE,142,0.0,2.0,87,0.00,,SKC,0.00,VWS V14.01,2013-01-12 01:29:00,
2013-01-11 19:34:00,63.1,59.2,29.87,SE,142,0.0,0.0,87,0.00,,SKC,0.00,VWS V14.01,2013-01-12 01:34:00,
2013-01-11 19:39:00,63.1,59.2,29.87,SE,142,0.0,0.0,87,0.00,,SKC,0.00,VWS V14.01,2013-01-12 01:39:00,
2013-01-11 19:44:00,63.3,59.7,29.87,SE,142,3.0,3.0,88,0.00,,SKC,0.00,VWS V14.01,2013-01-12 01:44:00,
2013-01-11 19:49:00,63.8,60.5,29.87,SE,142,0.0,3.0,89,0.00,,SKC,0.00,VWS V14.01,2013-01-12 01:49:00,
2013-01-11 19:54:00,64.1,61.1,29.88,SE,142,0.0,4.0,90,0.00,,SKC,0.00,VWS V14.01,2013-01-12 01:54:00,
2013-01-11 19:59:00,64.5,61.5,29.87,SE,142,3.0,5.0,90,0.00,,SKC,0.00,VWS V14.01,2013-01-12 01:59:00,
2013-01-11 20:04:00,64.9,61.9,29.88,SE,142,1.0,1.0,90,0.00,,SKC,0.00,VWS V14.01,2013-01-12 02:04:00,
2013-01-11 20:09:00,65.3,62.3,29.87,SE,142,3.0,5.0,90,0.00,,SKC,0.00,VWS V14.01,2013-01-12 02:09:00,
2013-01-11 20:14:00,65.7,63.0,29.88,SE,142,5.0,10.0,91,0.00,,SKC,0.00,VWS V14.01,2013-01-12 02:14:00,
2013-01-11 20:19:00,66.1,63.4,29.88,SE,142,0.0,10.0,91,0.00,,SKC,0.00,VWS V14.01,2013-01-12 02:19:00,
2013-01-11 20:24:00,66.3,63.6,29.87,SE,142,3.0,10.0,91,0.00,,SKC,0.00,VWS V14.01,2013-01-12 02:24:00,
2013-01-11 20:29:00,66.6,63.9,29.87,SE,139,4.0,10.0,91,0.00,,SKC,0.00,VWS V14.01,2013-01-12 02:29:00,
2013-01-11 20:34:00,66.8,64.1,29.87,SSE,148,4.0,12.0,91,0.00,,SKC,0.00,VWS V14.01,2013-01-12 02:34:00,
2013-01-11 20:39:00,67.1,64.4,29.87,SE,140,9.0,12.0,91,0.00,,SKC,0.00,VWS V14.01,2013-01-12 02:39:00,
2013-01-11 20:44:00,67.2,64.5,29.87,SE,139,3.0,12.0,91,0.00,,SKC,0.00,VWS V14.01,2013-01-12 02:44:00,
2013-01-11 20:49:00,67.2,64.5,29.88,SE,139,3.0,12.0,91,0.00,,SKC,0.00,VWS V14.01,2013-01-12 02:49:00,
2013-01-11 20:54:00,67.3,64.6,29.88,SE,139,3.0,12.0,91,0.00,,SKC,0.00,VWS V14.01,2013-01-12 02:54:00,
2013-01-11 20:59:00,67.3,64.6,29.87,SE,139,3.0,12.0,91,0.00,,SKC,0.00,VWS V14.01,2013-01-12 02:59:00,
2013-01-11 21:04:00,67.3,64.6,29.87,SE,139,1.0,5.0,91,0.00,,SKC,0.00,VWS V14.01,2013-01-12 03:04:00,
2013-01-11 21:09:00,67.3,64.6,29.88,SE,139,6.0,6.0,91,0.00,,SKC,0.00,VWS V14.01,2013-01-12 03:09:00,
2013-01-11 21:14:00,67.3,64.6,29.88,SE,140,3.0,8.0,91,0.00,,SKC,0.00,VWS V14.01,2013-01-12 03:14:00,
2013-01-11 21:19:00,67.3,64.6,29.87,SE,139,5.0,8.0,91,0.00,,SKC,0.00,VWS V14.01,2013-01-12 03:19:00,
2013-01-11 21:24:00,67.2,64.5,29.87,SE,140,4.0,9.0,91,0.00,,SKC,0.00,VWS V14.01,2013-01-12 03:24:00,
2013-01-11 21:29:00,67.2,64.5,29.87,SE,139,6.0,9.0,91,0.00,,SKC,0.00,VWS V14.01,2013-01-12 03:29:00,
2013-01-11 21:34:00,67.2,64.5,29.87,SE,144,2.0,7.0,91,0.00,,SKC,0.00,VWS V14.01,2013-01-12 03:34:00,
2013-01-11 21:39:00,67.2,64.5,29.88,SE,144,5.0,7.0,91,0.00,,SKC,0.00,VWS V14.01,2013-01-12 03:39:00,
2013-01-11 21:44:00,67.2,64.8,29.87,SE,144,4.0,7.0,92,0.00,,SKC,0.00,VWS V14.01,2013-01-12 03:44:00,
2013-01-11 21:49:00,67.2,64.8,29.88,SE,142,5.0,9.0,92,0.00,,SKC,0.00,VWS V14.01,2013-01-12 03:49:00,
2013-01-11 21:54:00,67.2,64.8,29.87,SE,142,6.0,9.0,92,0.00,,SKC,0.00,VWS V14.01,2013-01-12 03:54:00,
2013-01-11 21:59:00,67.2,64.8,29.87,SE,133,6.0,12.0,92,0.00,,SKC,0.00,VWS V14.01,2013-01-12 03:59:00,
2013-01-11 22:04:00,67.2,64.8,29.86,SE,138,5.0,9.0,92,0.00,,SKC,0.00,VWS V14.01,2013-01-12 04:04:00,
2013-01-11 22:09:00,67.2,64.8,29.86,SE,134,4.0,17.0,92,0.00,,SKC,0.00,VWS V14.01,2013-01-12 04:09:00,
2013-01-11 22:14:00,67.3,64.9,29.87,SE,137,4.0,17.0,92,0.00,,SKC,0.00,VWS V14.01,2013-01-12 04:14:00,
2013-01-11 22:19:00,67.3,64.9,29.88,SSE,165,4.0,17.0,92,0.00,,SKC,0.00,VWS V14.01,2013-01-12 04:19:00,
2013-01-11 22:24:00,67.3,65.2,29.88,SSE,151,3.0,17.0,93,0.00,,SKC,0.00,VWS V14.01,2013-01-12 04:24:00,
2013-01-11 22:29:00,67.3,65.2,29.88,SSE,153,8.0,17.0,93,0.00,,SKC,0.00,VWS V14.01,2013-01-12 04:29:00,
2013-01-11 22:34:00,67.3,65.2,29.87,SE,142,2.0,11.0,93,0.00,,SKC,0.00,VWS V14.01,2013-01-12 04:34:00,
2013-01-11 22:39:00,67.3,65.2,29.87,SSE,152,5.0,11.0,93,0.00,,SKC,0.00,VWS V14.01,2013-01-12 04:39:00,
2013-01-11 22:44:00,67.3,65.2,29.87,SSE,152,7.0,11.0,93,0.00,,SKC,0.00,VWS V14.01,2013-01-12 04:44:00,
2013-01-11 22:49:00,67.2,65.1,29.86,SE,142,5.0,11.0,93,0.00,,SKC,0.00,VWS V14.01,2013-01-12 04:49:00,
2013-01-11 22:54:00,67.2,65.1,29.87,SE,142,3.0,11.0,93,0.00,,SKC,0.00,VWS V14.01,2013-01-12 04:54:00,
2013-01-11 22:59:00,67.2,65.1,29.86,SSE,150,5.0,13.0,93,0.00,,SKC,0.00,VWS V14.01,2013-01-12 04:59:00,
2013-01-11 23:00:00,67.2,65.1,29.86,SSE,154,4.0,13.0,93,0.00,,SKC,0.00,VWS V14.01,2013-01-12 05:00:00,
2013-01-11 23:05:00,67.2,65.1,29.86,SSE,155,5.0,11.0,93,0.00,,SKC,0.00,VWS V14.01,2013-01-12 05:05:00,
2013-01-11 23:10:00,67.2,65.1,29.86,SSE,162,4.0,11.0,93,0.00,,SKC,0.00,VWS V14.01,2013-01-12 05:10:00,
2013-01-11 23:15:00,67.2,65.1,29.86,SSE,161,3.0,11.0,93,0.00,,SKC,0.00,VWS V14.01,2013-01-12 05:15:00,
2013-01-11 23:20:00,67.1,65.0,29.86,SSE,164,6.0,11.0,93,0.00,,SKC,0.00,VWS V14.01,2013-01-12 05:20:00,
2013-01-11 23:25:00,67.1,65.0,29.87,SSE,157,4.0,11.0,93,0.00,,SKC,0.00,VWS V14.01,2013-01-12 05:25:00,
2013-01-11 23:30:00,67.1,65.0,29.86,SSW,195,4.0,12.0,93,0.00,,SKC,0.00,VWS V14.01,2013-01-12 05:30:00,
2013-01-11 23:35:00,67.1,65.0,29.87,South,186,4.0,12.0,93,0.00,,SKC,0.00,VWS V14.01,2013-01-12 05:35:00,
2013-01-11 23:40:00,67.1,65.0,29.86,SE,141,9.0,15.0,93,0.00,,SKC,0.00,VWS V14.01,2013-01-12 05:40:00,
2013-01-11 23:45:00,67.1,65.0,29.86,SSE,157,7.0,15.0,93,0.00,,SKC,0.00,VWS V14.01,2013-01-12 05:45:00,
2013-01-11 23:50:00,67.1,65.0,29.86,South,169,3.0,15.0,93,0.00,,SKC,0.00,VWS V14.01,2013-01-12 05:50:00,
2013-01-11 23:55:00,67.1,65.0,29.86,SE,146,7.0,15.0,93,0.00,,SKC,0.00,VWS V14.01,2013-01-12 05:55:00,